sensor_id;sensor_type;location;lat;lon;timestamp;P1;durP1;ratioP1;P2;durP2;ratioP2
62951;SDS011;52163;52.212;-1.002;2022-09-17T00:02:17;2.10;;;0.90;;
62951;SDS011;52163;52.212;-1.002;2022-09-17T00:04:42;2.20;;;1.10;;
62951;SDS011;52163;52.212;-1.002;2022-09-17T00:07:08;3.00;;;1.20;;
62951;SDS011;52163;52.212;-1.002;2022-09-17T00:09:33;1.40;;;1.00;;
62951;SDS011;52163;52.212;-1.002;2022-09-17T00:11:59;2.00;;;1.10;;
62951;SDS011;52163;52.212;-1.002;2022-09-17T00:14:25;2.90;;;1.20;;
62951;SDS011;52163;52.212;-1.002;2022-09-17T00:16:50;2.50;;;0.90;;
62951;SDS011;52163;52.212;-1.002;2022-09-17T00:19:19;2.30;;;1.20;;
62951;SDS011;52163;52.212;-1.002;2022-09-17T00:21:47;2.40;;;1.20;;
62951;SDS011;52163;52.212;-1.002;2022-09-17T00:24:13;2.00;;;0.90;;
62951;SDS011;52163;52.212;-1.002;2022-09-17T00:26:39;2.40;;;1.10;;
62951;SDS011;52163;52.212;-1.002;2022-09-17T00:29:06;2.60;;;1.20;;
62951;SDS011;52163;52.212;-1.002;2022-09-17T00:31:32;3.00;;;1.30;;
62951;SDS011;52163;52.212;-1.002;2022-09-17T00:33:59;5.10;;;1.30;;
62951;SDS011;52163;52.212;-1.002;2022-09-17T00:36:26;2.10;;;1.30;;
62951;SDS011;52163;52.212;-1.002;2022-09-17T00:38:53;2.90;;;1.70;;
62951;SDS011;52163;52.212;-1.002;2022-09-17T00:41:20;3.50;;;1.50;;
62951;SDS011;52163;52.212;-1.002;2022-09-17T00:43:49;3.50;;;1.20;;
62951;SDS011;52163;52.212;-1.002;2022-09-17T00:46:37;3.50;;;1.30;;
62951;SDS011;52163;52.212;-1.002;2022-09-17T00:51:46;2.70;;;1.30;;
62951;SDS011;52163;52.212;-1.002;2022-09-17T00:54:25;3.30;;;1.40;;
62951;SDS011;52163;52.212;-1.002;2022-09-17T00:56:52;3.60;;;1.30;;
62951;SDS011;52163;52.212;-1.002;2022-09-17T00:59:18;3.20;;;1.40;;
62951;SDS011;52163;52.212;-1.002;2022-09-17T01:01:46;3.10;;;1.30;;
62951;SDS011;52163;52.212;-1.002;2022-09-17T01:04:16;3.10;;;1.30;;
62951;SDS011;52163;52.212;-1.002;2022-09-17T01:31:52;3.70;;;1.70;;
62951;SDS011;52163;52.212;-1.002;2022-09-17T01:37:13;2.30;;;1.30;;
62951;SDS011;52163;52.212;-1.002;2022-09-17T01:39:52;3.20;;;1.20;;
62951;SDS011;52163;52.212;-1.002;2022-09-17T01:42:44;2.60;;;1.30;;
62951;SDS011;52163;52.212;-1.002;2022-09-17T01:47:59;3.70;;;1.10;;
62951;SDS011;52163;52.212;-1.002;2022-09-17T01:50:42;1.90;;;1.00;;
62951;SDS011;52163;52.212;-1.002;2022-09-17T01:53:16;3.20;;;1.30;;
62951;SDS011;52163;52.212;-1.002;2022-09-17T01:55:46;2.00;;;1.10;;
62951;SDS011;52163;52.212;-1.002;2022-09-17T01:58:23;1.90;;;1.00;;
62951;SDS011;52163;52.212;-1.002;2022-09-17T02:00:54;2.00;;;1.20;;
62951;SDS011;52163;52.212;-1.002;2022-09-17T02:03:26;2.10;;;1.20;;
62951;SDS011;52163;52.212;-1.002;2022-09-17T02:06:06;2.70;;;1.20;;
62951;SDS011;52163;52.212;-1.002;2022-09-17T02:08:48;2.90;;;1.30;;
62951;SDS011;52163;52.212;-1.002;2022-09-17T02:11:19;3.90;;;1.80;;
62951;SDS011;52163;52.212;-1.002;2022-09-17T02:13:56;4.30;;;1.60;;
62951;SDS011;52163;52.212;-1.002;2022-09-17T02:16:27;4.30;;;1.70;;
62951;SDS011;52163;52.212;-1.002;2022-09-17T02:24:40;2.10;;;1.20;;
62951;SDS011;52163;52.212;-1.002;2022-09-17T02:30:04;4.00;;;1.20;;
62951;SDS011;52163;52.212;-1.002;2022-09-17T02:32:30;2.60;;;1.40;;
62951;SDS011;52163;52.212;-1.002;2022-09-17T02:34:56;3.20;;;1.60;;
62951;SDS011;52163;52.212;-1.002;2022-09-17T02:37:21;3.30;;;1.50;;
62951;SDS011;52163;52.212;-1.002;2022-09-17T02:39:46;2.10;;;1.20;;
62951;SDS011;52163;52.212;-1.002;2022-09-17T02:57:58;3.10;;;1.70;;
62951;SDS011;52163;52.212;-1.002;2022-09-17T03:00:31;5.60;;;1.80;;
62951;SDS011;52163;52.212;-1.002;2022-09-17T03:03:08;3.00;;;1.70;;
62951;SDS011;52163;52.212;-1.002;2022-09-17T03:05:35;3.10;;;1.70;;
62951;SDS011;52163;52.212;-1.002;2022-09-17T03:08:06;4.30;;;1.50;;
62951;SDS011;52163;52.212;-1.002;2022-09-17T03:10:33;3.00;;;1.60;;
62951;SDS011;52163;52.212;-1.002;2022-09-17T03:12:59;3.10;;;1.70;;
62951;SDS011;52163;52.212;-1.002;2022-09-17T03:15:24;3.10;;;1.50;;
62951;SDS011;52163;52.212;-1.002;2022-09-17T03:17:50;3.00;;;1.90;;
62951;SDS011;52163;52.212;-1.002;2022-09-17T03:20:15;3.80;;;2.00;;
62951;SDS011;52163;52.212;-1.002;2022-09-17T03:22:41;5.40;;;2.10;;
62951;SDS011;52163;52.212;-1.002;2022-09-17T03:25:07;3.10;;;1.80;;
62951;SDS011;52163;52.212;-1.002;2022-09-17T03:27:34;2.70;;;1.70;;
62951;SDS011;52163;52.212;-1.002;2022-09-17T03:29:59;2.60;;;1.60;;
62951;SDS011;52163;52.212;-1.002;2022-09-17T03:32:25;2.80;;;1.30;;
62951;SDS011;52163;52.212;-1.002;2022-09-17T03:34:50;3.20;;;1.80;;
62951;SDS011;52163;52.212;-1.002;2022-09-17T03:37:16;2.90;;;1.60;;
62951;SDS011;52163;52.212;-1.002;2022-09-17T03:39:41;3.50;;;1.80;;
62951;SDS011;52163;52.212;-1.002;2022-09-17T03:42:06;4.20;;;1.70;;
62951;SDS011;52163;52.212;-1.002;2022-09-17T03:44:32;4.60;;;1.40;;
62951;SDS011;52163;52.212;-1.002;2022-09-17T03:46:57;3.00;;;1.90;;
62951;SDS011;52163;52.212;-1.002;2022-09-17T03:49:23;4.40;;;2.20;;
62951;SDS011;52163;52.212;-1.002;2022-09-17T03:51:48;4.60;;;2.40;;
62951;SDS011;52163;52.212;-1.002;2022-09-17T03:54:14;5.10;;;2.30;;
62951;SDS011;52163;52.212;-1.002;2022-09-17T03:56:39;4.50;;;2.00;;
62951;SDS011;52163;52.212;-1.002;2022-09-17T03:59:04;4.40;;;2.10;;
62951;SDS011;52163;52.212;-1.002;2022-09-17T04:01:30;3.60;;;1.90;;
62951;SDS011;52163;52.212;-1.002;2022-09-17T04:03:56;3.40;;;2.20;;
62951;SDS011;52163;52.212;-1.002;2022-09-17T04:06:21;3.50;;;1.90;;
62951;SDS011;52163;52.212;-1.002;2022-09-17T04:08:47;3.80;;;2.10;;
62951;SDS011;52163;52.212;-1.002;2022-09-17T04:11:12;2.80;;;1.80;;
62951;SDS011;52163;52.212;-1.002;2022-09-17T04:13:38;3.60;;;1.90;;
62951;SDS011;52163;52.212;-1.002;2022-09-17T04:16:03;7.10;;;2.30;;
62951;SDS011;52163;52.212;-1.002;2022-09-17T04:18:29;5.80;;;2.90;;
62951;SDS011;52163;52.212;-1.002;2022-09-17T04:20:55;4.80;;;2.20;;
62951;SDS011;52163;52.212;-1.002;2022-09-17T04:23:21;3.50;;;2.10;;
62951;SDS011;52163;52.212;-1.002;2022-09-17T04:25:47;4.10;;;2.40;;
62951;SDS011;52163;52.212;-1.002;2022-09-17T04:28:12;4.00;;;1.90;;
62951;SDS011;52163;52.212;-1.002;2022-09-17T04:30:38;3.50;;;1.80;;
62951;SDS011;52163;52.212;-1.002;2022-09-17T04:33:03;4.40;;;2.60;;
62951;SDS011;52163;52.212;-1.002;2022-09-17T04:35:29;4.10;;;2.10;;
62951;SDS011;52163;52.212;-1.002;2022-09-17T04:37:58;5.30;;;2.00;;
62951;SDS011;52163;52.212;-1.002;2022-09-17T04:40:24;4.70;;;2.30;;
62951;SDS011;52163;52.212;-1.002;2022-09-17T04:42:51;5.50;;;3.20;;
62951;SDS011;52163;52.212;-1.002;2022-09-17T04:45:18;5.30;;;2.70;;
62951;SDS011;52163;52.212;-1.002;2022-09-17T04:47:44;5.30;;;2.60;;
62951;SDS011;52163;52.212;-1.002;2022-09-17T04:50:09;3.80;;;2.30;;
62951;SDS011;52163;52.212;-1.002;2022-09-17T04:52:36;3.60;;;2.20;;
62951;SDS011;52163;52.212;-1.002;2022-09-17T04:55:06;5.90;;;2.20;;
62951;SDS011;52163;52.212;-1.002;2022-09-17T04:57:32;5.10;;;2.20;;
62951;SDS011;52163;52.212;-1.002;2022-09-17T04:59:57;2.90;;;1.90;;
62951;SDS011;52163;52.212;-1.002;2022-09-17T05:02:22;5.90;;;2.00;;
62951;SDS011;52163;52.212;-1.002;2022-09-17T05:04:48;4.90;;;2.00;;
62951;SDS011;52163;52.212;-1.002;2022-09-17T05:07:14;2.90;;;2.00;;
62951;SDS011;52163;52.212;-1.002;2022-09-17T05:09:40;3.90;;;2.50;;
62951;SDS011;52163;52.212;-1.002;2022-09-17T05:12:05;4.50;;;2.90;;
62951;SDS011;52163;52.212;-1.002;2022-09-17T05:14:31;5.60;;;2.50;;
62951;SDS011;52163;52.212;-1.002;2022-09-17T05:16:56;4.70;;;3.00;;
62951;SDS011;52163;52.212;-1.002;2022-09-17T05:19:22;5.00;;;2.30;;
62951;SDS011;52163;52.212;-1.002;2022-09-17T05:21:47;4.60;;;2.10;;
62951;SDS011;52163;52.212;-1.002;2022-09-17T05:24:13;5.60;;;3.00;;
62951;SDS011;52163;52.212;-1.002;2022-09-17T05:26:38;4.40;;;2.40;;
62951;SDS011;52163;52.212;-1.002;2022-09-17T05:29:04;5.10;;;2.10;;
62951;SDS011;52163;52.212;-1.002;2022-09-17T05:31:29;3.40;;;2.00;;
62951;SDS011;52163;52.212;-1.002;2022-09-17T05:33:56;3.80;;;2.30;;
62951;SDS011;52163;52.212;-1.002;2022-09-17T05:36:22;3.90;;;2.10;;
62951;SDS011;52163;52.212;-1.002;2022-09-17T05:38:48;4.10;;;2.30;;
62951;SDS011;52163;52.212;-1.002;2022-09-17T05:41:13;5.20;;;2.90;;
62951;SDS011;52163;52.212;-1.002;2022-09-17T05:43:38;5.60;;;3.00;;
62951;SDS011;52163;52.212;-1.002;2022-09-17T05:46:04;4.60;;;3.10;;
62951;SDS011;52163;52.212;-1.002;2022-09-17T05:48:31;6.40;;;2.80;;
62951;SDS011;52163;52.212;-1.002;2022-09-17T05:50:57;5.10;;;2.70;;
62951;SDS011;52163;52.212;-1.002;2022-09-17T05:53:22;8.30;;;3.00;;
62951;SDS011;52163;52.212;-1.002;2022-09-17T05:55:48;5.10;;;2.30;;
62951;SDS011;52163;52.212;-1.002;2022-09-17T05:58:14;6.40;;;2.70;;
62951;SDS011;52163;52.212;-1.002;2022-09-17T06:00:43;4.60;;;2.60;;
62951;SDS011;52163;52.212;-1.002;2022-09-17T06:03:11;6.10;;;2.60;;
62951;SDS011;52163;52.212;-1.002;2022-09-17T06:05:37;3.70;;;2.40;;
62951;SDS011;52163;52.212;-1.002;2022-09-17T06:08:03;5.40;;;3.10;;
62951;SDS011;52163;52.212;-1.002;2022-09-17T06:10:29;6.60;;;3.60;;
62951;SDS011;52163;52.212;-1.002;2022-09-17T06:12:56;4.90;;;3.20;;
62951;SDS011;52163;52.212;-1.002;2022-09-17T06:15:22;4.90;;;2.80;;
62951;SDS011;52163;52.212;-1.002;2022-09-17T06:17:47;4.10;;;2.50;;
62951;SDS011;52163;52.212;-1.002;2022-09-17T06:20:13;6.50;;;3.40;;
62951;SDS011;52163;52.212;-1.002;2022-09-17T06:22:40;4.10;;;2.50;;
62951;SDS011;52163;52.212;-1.002;2022-09-17T06:25:06;4.90;;;2.30;;
62951;SDS011;52163;52.212;-1.002;2022-09-17T06:27:32;5.50;;;2.70;;
62951;SDS011;52163;52.212;-1.002;2022-09-17T06:29:58;6.10;;;2.90;;
62951;SDS011;52163;52.212;-1.002;2022-09-17T06:32:24;4.70;;;2.70;;
62951;SDS011;52163;52.212;-1.002;2022-09-17T06:34:50;6.00;;;2.80;;
62951;SDS011;52163;52.212;-1.002;2022-09-17T06:37:16;5.80;;;3.30;;
62951;SDS011;52163;52.212;-1.002;2022-09-17T06:39:41;10.60;;;3.20;;
62951;SDS011;52163;52.212;-1.002;2022-09-17T06:42:07;7.30;;;3.10;;
62951;SDS011;52163;52.212;-1.002;2022-09-17T06:44:32;6.90;;;2.40;;
62951;SDS011;52163;52.212;-1.002;2022-09-17T06:46:58;5.40;;;2.60;;
62951;SDS011;52163;52.212;-1.002;2022-09-17T06:49:23;5.40;;;2.30;;
62951;SDS011;52163;52.212;-1.002;2022-09-17T06:51:48;4.30;;;2.60;;
62951;SDS011;52163;52.212;-1.002;2022-09-17T06:54:14;5.00;;;2.80;;
62951;SDS011;52163;52.212;-1.002;2022-09-17T06:56:40;3.90;;;2.60;;
62951;SDS011;52163;52.212;-1.002;2022-09-17T06:59:05;4.10;;;2.40;;
62951;SDS011;52163;52.212;-1.002;2022-09-17T07:01:31;3.60;;;2.00;;
62951;SDS011;52163;52.212;-1.002;2022-09-17T07:03:57;4.00;;;2.20;;
62951;SDS011;52163;52.212;-1.002;2022-09-17T07:06:22;4.30;;;2.70;;
62951;SDS011;52163;52.212;-1.002;2022-09-17T07:08:48;6.30;;;3.00;;
62951;SDS011;52163;52.212;-1.002;2022-09-17T07:11:14;5.70;;;2.50;;
62951;SDS011;52163;52.212;-1.002;2022-09-17T07:13:40;6.40;;;4.50;;
62951;SDS011;52163;52.212;-1.002;2022-09-17T07:16:06;4.80;;;2.30;;
62951;SDS011;52163;52.212;-1.002;2022-09-17T07:18:31;5.00;;;2.20;;
62951;SDS011;52163;52.212;-1.002;2022-09-17T07:20:58;6.50;;;2.70;;
62951;SDS011;52163;52.212;-1.002;2022-09-17T07:23:29;3.40;;;1.70;;
62951;SDS011;52163;52.212;-1.002;2022-09-17T07:25:59;3.90;;;2.30;;
62951;SDS011;52163;52.212;-1.002;2022-09-17T07:28:27;5.10;;;2.40;;
62951;SDS011;52163;52.212;-1.002;2022-09-17T07:30:53;5.20;;;2.30;;
62951;SDS011;52163;52.212;-1.002;2022-09-17T07:33:20;5.70;;;2.60;;
62951;SDS011;52163;52.212;-1.002;2022-09-17T07:35:52;5.80;;;2.10;;
62951;SDS011;52163;52.212;-1.002;2022-09-17T07:38:18;3.50;;;2.00;;
62951;SDS011;52163;52.212;-1.002;2022-09-17T07:40:51;4.90;;;2.20;;
62951;SDS011;52163;52.212;-1.002;2022-09-17T07:43:24;3.60;;;1.80;;
62951;SDS011;52163;52.212;-1.002;2022-09-17T07:45:51;4.10;;;2.00;;
62951;SDS011;52163;52.212;-1.002;2022-09-17T07:48:18;3.10;;;2.20;;
62951;SDS011;52163;52.212;-1.002;2022-09-17T07:50:44;3.70;;;2.30;;
62951;SDS011;52163;52.212;-1.002;2022-09-17T07:53:11;5.30;;;2.00;;
62951;SDS011;52163;52.212;-1.002;2022-09-17T07:55:36;4.60;;;2.40;;
62951;SDS011;52163;52.212;-1.002;2022-09-17T07:58:05;6.10;;;2.40;;
62951;SDS011;52163;52.212;-1.002;2022-09-17T08:00:31;4.50;;;2.00;;
62951;SDS011;52163;52.212;-1.002;2022-09-17T08:02:57;7.60;;;2.40;;
62951;SDS011;52163;52.212;-1.002;2022-09-17T08:05:22;5.10;;;1.90;;
62951;SDS011;52163;52.212;-1.002;2022-09-17T08:07:50;5.30;;;1.80;;
62951;SDS011;52163;52.212;-1.002;2022-09-17T08:10:16;4.70;;;2.20;;
62951;SDS011;52163;52.212;-1.002;2022-09-17T08:12:46;3.80;;;2.00;;
62951;SDS011;52163;52.212;-1.002;2022-09-17T08:15:12;2.80;;;1.70;;
62951;SDS011;52163;52.212;-1.002;2022-09-17T08:17:41;5.60;;;3.60;;
62951;SDS011;52163;52.212;-1.002;2022-09-17T08:20:11;2.90;;;1.60;;
62951;SDS011;52163;52.212;-1.002;2022-09-17T08:22:37;4.70;;;1.70;;
62951;SDS011;52163;52.212;-1.002;2022-09-17T08:25:04;4.60;;;2.80;;
62951;SDS011;52163;52.212;-1.002;2022-09-17T08:27:31;3.00;;;1.60;;
62951;SDS011;52163;52.212;-1.002;2022-09-17T08:29:57;3.60;;;1.70;;
62951;SDS011;52163;52.212;-1.002;2022-09-17T08:32:23;2.90;;;1.40;;
62951;SDS011;52163;52.212;-1.002;2022-09-17T08:34:49;4.00;;;1.60;;
62951;SDS011;52163;52.212;-1.002;2022-09-17T08:37:14;3.60;;;1.40;;
62951;SDS011;52163;52.212;-1.002;2022-09-17T08:39:40;3.40;;;1.50;;
62951;SDS011;52163;52.212;-1.002;2022-09-17T08:44:50;2.20;;;1.20;;
62951;SDS011;52163;52.212;-1.002;2022-09-17T08:50:02;2.30;;;1.10;;
62951;SDS011;52163;52.212;-1.002;2022-09-17T08:57:41;4.80;;;0.90;;
62951;SDS011;52163;52.212;-1.002;2022-09-17T09:00:29;1.80;;;0.70;;
62951;SDS011;52163;52.212;-1.002;2022-09-17T09:03:12;2.20;;;1.00;;
62951;SDS011;52163;52.212;-1.002;2022-09-17T09:05:51;2.20;;;1.00;;
62951;SDS011;52163;52.212;-1.002;2022-09-17T09:10:47;1.90;;;0.90;;
62951;SDS011;52163;52.212;-1.002;2022-09-17T09:13:17;2.00;;;0.90;;
62951;SDS011;52163;52.212;-1.002;2022-09-17T09:15:47;3.10;;;1.10;;
62951;SDS011;52163;52.212;-1.002;2022-09-17T09:18:22;1.90;;;0.90;;
62951;SDS011;52163;52.212;-1.002;2022-09-17T09:20:51;2.80;;;1.00;;
62951;SDS011;52163;52.212;-1.002;2022-09-17T09:26:44;4.30;;;1.30;;
62951;SDS011;52163;52.212;-1.002;2022-09-17T09:34:54;1.50;;;0.70;;
62951;SDS011;52163;52.212;-1.002;2022-09-17T09:37:56;3.30;;;0.50;;
62951;SDS011;52163;52.212;-1.002;2022-09-17T09:40:36;2.50;;;0.70;;
62951;SDS011;52163;52.212;-1.002;2022-09-17T09:43:44;3.10;;;0.90;;
62951;SDS011;52163;52.212;-1.002;2022-09-17T09:52:07;2.50;;;0.60;;
62951;SDS011;52163;52.212;-1.002;2022-09-17T09:57:45;1.60;;;0.70;;
62951;SDS011;52163;52.212;-1.002;2022-09-17T10:03:15;1.90;;;0.60;;
62951;SDS011;52163;52.212;-1.002;2022-09-17T10:08:18;4.50;;;0.90;;
62951;SDS011;52163;52.212;-1.002;2022-09-17T10:11:03;0.80;;;0.40;;
62951;SDS011;52163;52.212;-1.002;2022-09-17T10:13:31;1.20;;;0.60;;
62951;SDS011;52163;52.212;-1.002;2022-09-17T10:18:45;3.20;;;1.00;;
62951;SDS011;52163;52.212;-1.002;2022-09-17T10:21:22;2.10;;;0.80;;
62951;SDS011;52163;52.212;-1.002;2022-09-17T10:23:58;1.40;;;0.60;;
62951;SDS011;52163;52.212;-1.002;2022-09-17T10:26:29;2.20;;;0.60;;
62951;SDS011;52163;52.212;-1.002;2022-09-17T10:28:58;2.00;;;0.60;;
62951;SDS011;52163;52.212;-1.002;2022-09-17T10:31:26;1.80;;;0.70;;
62951;SDS011;52163;52.212;-1.002;2022-09-17T10:33:55;0.80;;;0.50;;
62951;SDS011;52163;52.212;-1.002;2022-09-17T10:39:17;2.60;;;0.70;;
62951;SDS011;52163;52.212;-1.002;2022-09-17T10:41:57;2.70;;;0.80;;
62951;SDS011;52163;52.212;-1.002;2022-09-17T10:44:25;1.60;;;0.80;;
62951;SDS011;52163;52.212;-1.002;2022-09-17T10:46:53;2.80;;;0.60;;
62951;SDS011;52163;52.212;-1.002;2022-09-17T10:52:13;3.00;;;0.80;;
62951;SDS011;52163;52.212;-1.002;2022-09-17T10:58:02;2.20;;;0.80;;
62951;SDS011;52163;52.212;-1.002;2022-09-17T11:06:14;2.30;;;0.70;;
62951;SDS011;52163;52.212;-1.002;2022-09-17T11:31:07;1.90;;;0.70;;
62951;SDS011;52163;52.212;-1.002;2022-09-17T11:34:19;4.90;;;0.70;;
62951;SDS011;52163;52.212;-1.002;2022-09-17T11:39:52;2.70;;;0.80;;
62951;SDS011;52163;52.212;-1.002;2022-09-17T11:42:31;3.50;;;0.90;;
62951;SDS011;52163;52.212;-1.002;2022-09-17T11:45:04;2.90;;;0.70;;
62951;SDS011;52163;52.212;-1.002;2022-09-17T11:47:40;4.00;;;1.20;;
62951;SDS011;52163;52.212;-1.002;2022-09-17T11:50:25;2.20;;;0.70;;
62951;SDS011;52163;52.212;-1.002;2022-09-17T11:55:34;3.00;;;0.60;;
62951;SDS011;52163;52.212;-1.002;2022-09-17T11:58:26;2.80;;;0.80;;
62951;SDS011;52163;52.212;-1.002;2022-09-17T12:01:01;3.30;;;0.80;;
62951;SDS011;52163;52.212;-1.002;2022-09-17T12:03:33;2.30;;;0.60;;
62951;SDS011;52163;52.212;-1.002;2022-09-17T12:06:07;2.10;;;0.60;;
62951;SDS011;52163;52.212;-1.002;2022-09-17T12:08:41;1.40;;;0.70;;
62951;SDS011;52163;52.212;-1.002;2022-09-17T12:11:17;2.30;;;0.70;;
62951;SDS011;52163;52.212;-1.002;2022-09-17T12:13:56;2.80;;;0.70;;
62951;SDS011;52163;52.212;-1.002;2022-09-17T12:22:11;2.50;;;0.80;;
62951;SDS011;52163;52.212;-1.002;2022-09-17T12:24:48;4.00;;;0.80;;
62951;SDS011;52163;52.212;-1.002;2022-09-17T12:27:21;2.60;;;0.90;;
62951;SDS011;52163;52.212;-1.002;2022-09-17T12:30:05;2.00;;;0.70;;
62951;SDS011;52163;52.212;-1.002;2022-09-17T12:44:38;2.40;;;0.90;;
62951;SDS011;52163;52.212;-1.002;2022-09-17T12:59:00;2.40;;;0.80;;
62951;SDS011;52163;52.212;-1.002;2022-09-17T13:06:57;2.10;;;0.80;;
62951;SDS011;52163;52.212;-1.002;2022-09-17T13:09:43;1.20;;;0.90;;
62951;SDS011;52163;52.212;-1.002;2022-09-17T13:21:42;3.40;;;0.90;;
62951;SDS011;52163;52.212;-1.002;2022-09-17T13:26:43;2.20;;;0.90;;
62951;SDS011;52163;52.212;-1.002;2022-09-17T13:29:10;1.80;;;0.90;;
62951;SDS011;52163;52.212;-1.002;2022-09-17T13:34:03;3.00;;;0.90;;
62951;SDS011;52163;52.212;-1.002;2022-09-17T13:36:54;2.10;;;0.70;;
62951;SDS011;52163;52.212;-1.002;2022-09-17T13:39:38;2.40;;;0.90;;
62951;SDS011;52163;52.212;-1.002;2022-09-17T13:42:08;2.90;;;0.80;;
62951;SDS011;52163;52.212;-1.002;2022-09-17T13:44:40;4.00;;;0.90;;
62951;SDS011;52163;52.212;-1.002;2022-09-17T13:49:54;2.30;;;0.80;;
62951;SDS011;52163;52.212;-1.002;2022-09-17T13:54:56;1.50;;;0.80;;
62951;SDS011;52163;52.212;-1.002;2022-09-17T13:57:22;2.10;;;0.90;;
62951;SDS011;52163;52.212;-1.002;2022-09-17T13:59:56;2.20;;;0.80;;
62951;SDS011;52163;52.212;-1.002;2022-09-17T14:02:28;3.20;;;0.80;;
62951;SDS011;52163;52.212;-1.002;2022-09-17T14:07:47;2.60;;;0.80;;
62951;SDS011;52163;52.212;-1.002;2022-09-17T14:17:57;4.20;;;0.80;;
62951;SDS011;52163;52.212;-1.002;2022-09-17T14:20:23;3.40;;;0.90;;
62951;SDS011;52163;52.212;-1.002;2022-09-17T14:22:56;2.10;;;0.90;;
62951;SDS011;52163;52.212;-1.002;2022-09-17T14:25:45;3.40;;;0.90;;
62951;SDS011;52163;52.212;-1.002;2022-09-17T14:28:30;2.20;;;0.70;;
62951;SDS011;52163;52.212;-1.002;2022-09-17T14:31:08;1.40;;;0.80;;
62951;SDS011;52163;52.212;-1.002;2022-09-17T14:33:42;2.00;;;0.90;;
62951;SDS011;52163;52.212;-1.002;2022-09-17T14:36:12;3.30;;;0.80;;
62951;SDS011;52163;52.212;-1.002;2022-09-17T14:38:49;4.40;;;1.00;;
62951;SDS011;52163;52.212;-1.002;2022-09-17T14:41:19;3.00;;;1.00;;
62951;SDS011;52163;52.212;-1.002;2022-09-17T14:51:47;2.80;;;0.90;;
62951;SDS011;52163;52.212;-1.002;2022-09-17T14:56:47;1.80;;;0.90;;
62951;SDS011;52163;52.212;-1.002;2022-09-17T14:59:19;3.00;;;1.00;;
62951;SDS011;52163;52.212;-1.002;2022-09-17T15:01:45;1.80;;;0.90;;
62951;SDS011;52163;52.212;-1.002;2022-09-17T15:06:37;2.40;;;0.90;;
62951;SDS011;52163;52.212;-1.002;2022-09-17T15:09:03;1.60;;;0.80;;
62951;SDS011;52163;52.212;-1.002;2022-09-17T15:11:39;2.00;;;1.00;;
62951;SDS011;52163;52.212;-1.002;2022-09-17T15:14:11;2.30;;;1.00;;
62951;SDS011;52163;52.212;-1.002;2022-09-17T15:16:53;2.20;;;0.80;;
62951;SDS011;52163;52.212;-1.002;2022-09-17T15:22:09;2.60;;;1.10;;
62951;SDS011;52163;52.212;-1.002;2022-09-17T15:27:12;2.00;;;1.10;;
62951;SDS011;52163;52.212;-1.002;2022-09-17T15:30:10;4.50;;;1.20;;
62951;SDS011;52163;52.212;-1.002;2022-09-17T15:32:37;1.90;;;1.20;;
62951;SDS011;52163;52.212;-1.002;2022-09-17T15:37:48;2.60;;;1.00;;
62951;SDS011;52163;52.212;-1.002;2022-09-17T15:43:02;2.00;;;1.00;;
62951;SDS011;52163;52.212;-1.002;2022-09-17T15:45:37;4.10;;;1.50;;
62951;SDS011;52163;52.212;-1.002;2022-09-17T15:48:05;2.40;;;1.00;;
62951;SDS011;52163;52.212;-1.002;2022-09-17T15:50:51;3.90;;;1.50;;
62951;SDS011;52163;52.212;-1.002;2022-09-17T15:53:26;2.70;;;0.90;;
62951;SDS011;52163;52.212;-1.002;2022-09-17T15:56:03;3.20;;;1.00;;
62951;SDS011;52163;52.212;-1.002;2022-09-17T15:58:47;1.40;;;0.80;;
62951;SDS011;52163;52.212;-1.002;2022-09-17T16:11:15;1.70;;;1.00;;
62951;SDS011;52163;52.212;-1.002;2022-09-17T16:13:41;3.20;;;1.10;;
62951;SDS011;52163;52.212;-1.002;2022-09-17T16:16:13;2.00;;;0.90;;
62951;SDS011;52163;52.212;-1.002;2022-09-17T16:18:41;3.10;;;1.00;;
62951;SDS011;52163;52.212;-1.002;2022-09-17T16:21:10;4.20;;;1.20;;
62951;SDS011;52163;52.212;-1.002;2022-09-17T16:23:36;1.90;;;1.00;;
62951;SDS011;52163;52.212;-1.002;2022-09-17T16:26:02;2.80;;;1.30;;
62951;SDS011;52163;52.212;-1.002;2022-09-17T16:28:28;2.20;;;1.00;;
62951;SDS011;52163;52.212;-1.002;2022-09-17T16:30:54;4.90;;;1.40;;
62951;SDS011;52163;52.212;-1.002;2022-09-17T16:33:21;3.90;;;1.20;;
62951;SDS011;52163;52.212;-1.002;2022-09-17T16:35:46;5.90;;;2.70;;
62951;SDS011;52163;52.212;-1.002;2022-09-17T16:38:12;3.50;;;1.20;;
62951;SDS011;52163;52.212;-1.002;2022-09-17T16:40:38;3.00;;;1.00;;
62951;SDS011;52163;52.212;-1.002;2022-09-17T16:43:05;2.70;;;1.40;;
62951;SDS011;52163;52.212;-1.002;2022-09-17T16:45:32;2.90;;;1.20;;
62951;SDS011;52163;52.212;-1.002;2022-09-17T16:47:58;2.80;;;1.30;;
62951;SDS011;52163;52.212;-1.002;2022-09-17T16:50:24;3.50;;;1.10;;
62951;SDS011;52163;52.212;-1.002;2022-09-17T16:52:52;2.70;;;0.80;;
62951;SDS011;52163;52.212;-1.002;2022-09-17T16:55:18;3.30;;;0.90;;
62951;SDS011;52163;52.212;-1.002;2022-09-17T16:57:44;2.80;;;1.10;;
62951;SDS011;52163;52.212;-1.002;2022-09-17T17:00:11;1.50;;;0.60;;
62951;SDS011;52163;52.212;-1.002;2022-09-17T17:02:40;2.70;;;0.90;;
62951;SDS011;52163;52.212;-1.002;2022-09-17T17:05:07;1.30;;;0.70;;
62951;SDS011;52163;52.212;-1.002;2022-09-17T17:07:35;3.80;;;1.00;;
62951;SDS011;52163;52.212;-1.002;2022-09-17T17:10:01;2.30;;;1.10;;
62951;SDS011;52163;52.212;-1.002;2022-09-17T17:12:28;2.70;;;0.90;;
62951;SDS011;52163;52.212;-1.002;2022-09-17T17:14:54;2.00;;;1.00;;
62951;SDS011;52163;52.212;-1.002;2022-09-17T17:17:20;1.10;;;0.70;;
62951;SDS011;52163;52.212;-1.002;2022-09-17T17:19:46;3.20;;;1.00;;
62951;SDS011;52163;52.212;-1.002;2022-09-17T17:22:12;1.80;;;0.90;;
62951;SDS011;52163;52.212;-1.002;2022-09-17T17:24:38;3.40;;;1.00;;
62951;SDS011;52163;52.212;-1.002;2022-09-17T17:27:04;3.00;;;0.90;;
62951;SDS011;52163;52.212;-1.002;2022-09-17T17:29:30;3.60;;;1.00;;
62951;SDS011;52163;52.212;-1.002;2022-09-17T17:31:56;2.70;;;0.70;;
62951;SDS011;52163;52.212;-1.002;2022-09-17T17:34:22;2.80;;;0.80;;
62951;SDS011;52163;52.212;-1.002;2022-09-17T17:36:48;1.80;;;0.80;;
62951;SDS011;52163;52.212;-1.002;2022-09-17T17:39:14;1.80;;;0.90;;
62951;SDS011;52163;52.212;-1.002;2022-09-17T17:41:40;1.50;;;0.80;;
62951;SDS011;52163;52.212;-1.002;2022-09-17T17:44:05;1.80;;;0.70;;
62951;SDS011;52163;52.212;-1.002;2022-09-17T17:46:31;2.30;;;0.80;;
62951;SDS011;52163;52.212;-1.002;2022-09-17T17:48:56;1.40;;;0.80;;
62951;SDS011;52163;52.212;-1.002;2022-09-17T17:51:22;2.00;;;1.00;;
62951;SDS011;52163;52.212;-1.002;2022-09-17T17:53:49;2.00;;;1.10;;
62951;SDS011;52163;52.212;-1.002;2022-09-17T17:56:15;2.30;;;1.00;;
62951;SDS011;52163;52.212;-1.002;2022-09-17T17:58:42;2.00;;;1.00;;
62951;SDS011;52163;52.212;-1.002;2022-09-17T18:01:11;4.00;;;1.20;;
62951;SDS011;52163;52.212;-1.002;2022-09-17T18:03:41;3.00;;;1.40;;
62951;SDS011;52163;52.212;-1.002;2022-09-17T18:06:07;3.60;;;1.20;;
62951;SDS011;52163;52.212;-1.002;2022-09-17T18:08:34;3.20;;;1.10;;
62951;SDS011;52163;52.212;-1.002;2022-09-17T18:11:04;1.90;;;1.00;;
62951;SDS011;52163;52.212;-1.002;2022-09-17T18:13:32;2.70;;;1.00;;
62951;SDS011;52163;52.212;-1.002;2022-09-17T18:16:02;2.80;;;1.00;;
62951;SDS011;52163;52.212;-1.002;2022-09-17T18:18:46;2.40;;;1.00;;
62951;SDS011;52163;52.212;-1.002;2022-09-17T18:21:13;1.80;;;1.00;;
62951;SDS011;52163;52.212;-1.002;2022-09-17T18:23:42;2.00;;;0.80;;
62951;SDS011;52163;52.212;-1.002;2022-09-17T18:26:10;2.90;;;0.90;;
62951;SDS011;52163;52.212;-1.002;2022-09-17T18:28:37;1.80;;;0.90;;
62951;SDS011;52163;52.212;-1.002;2022-09-17T18:31:07;1.60;;;0.80;;
62951;SDS011;52163;52.212;-1.002;2022-09-17T18:33:44;2.50;;;0.90;;
62951;SDS011;52163;52.212;-1.002;2022-09-17T18:36:10;2.00;;;0.90;;
62951;SDS011;52163;52.212;-1.002;2022-09-17T18:38:35;1.60;;;0.70;;
62951;SDS011;52163;52.212;-1.002;2022-09-17T18:41:04;1.90;;;0.90;;
62951;SDS011;52163;52.212;-1.002;2022-09-17T18:43:34;1.40;;;0.80;;
62951;SDS011;52163;52.212;-1.002;2022-09-17T18:46:00;1.70;;;0.90;;